createdAt,value
2023-02-12T00:01:58.576Z,14.48
2023-02-12T00:04:25.185Z,15.17
2023-02-12T00:06:51.784Z,14.98
2023-02-12T00:09:18.365Z,14.07
2023-02-12T00:11:44.919Z,15.43
2023-02-12T00:14:11.526Z,15.10
2023-02-12T00:16:38.347Z,17.20
2023-02-12T00:19:04.727Z,16.75
2023-02-12T00:21:31.353Z,15.18
2023-02-12T00:23:58.137Z,14.23
2023-02-12T00:26:25.071Z,14.95
2023-02-12T00:28:51.683Z,15.53
2023-02-12T00:31:25.187Z,15.65
2023-02-12T00:33:51.984Z,15.57
2023-02-12T00:36:21.088Z,16.48
2023-02-12T00:38:49.557Z,16.98
2023-02-12T00:41:16.318Z,17.03
2023-02-12T00:43:42.964Z,16.05
2023-02-12T00:46:10.166Z,17.90
2023-02-12T00:48:37.349Z,17.42
2023-02-12T00:51:04.224Z,17.77
2023-02-12T00:53:30.860Z,17.33
2023-02-12T00:55:57.992Z,17.73
2023-02-12T00:58:24.429Z,16.70
2023-02-12T01:00:51.172Z,16.60
2023-02-12T01:03:17.961Z,16.38
2023-02-12T01:05:44.637Z,16.80
2023-02-12T01:08:13.661Z,16.75
2023-02-12T01:10:41.014Z,16.63
2023-02-12T01:13:07.834Z,17.63
2023-02-12T01:15:34.232Z,17.92
2023-02-12T01:18:00.800Z,15.87
2023-02-12T01:20:27.489Z,16.65
2023-02-12T01:22:54.182Z,15.95
2023-02-12T01:25:20.944Z,17.40
2023-02-12T01:27:48.403Z,17.88
2023-02-12T01:30:15.799Z,18.03
2023-02-12T01:32:43.126Z,17.73
2023-02-12T01:35:10.741Z,18.70
2023-02-12T01:37:38.218Z,18.08
2023-02-12T01:40:08.159Z,17.67
2023-02-12T01:42:34.842Z,17.87
2023-02-12T01:45:13.348Z,19.13
2023-02-12T01:47:44.793Z,18.67
2023-02-12T01:50:16.113Z,18.40
2023-02-12T01:52:48.349Z,19.20
2023-02-12T01:55:15.830Z,18.37
2023-02-12T01:57:46.160Z,18.58
2023-02-12T02:00:20.266Z,17.75
2023-02-12T02:02:51.417Z,18.65
2023-02-12T02:05:25.059Z,18.58
2023-02-12T02:07:53.581Z,18.80
2023-02-12T02:10:20.371Z,18.73
2023-02-12T02:13:05.393Z,19.42
2023-02-12T02:15:33.468Z,19.63
2023-02-12T02:18:11.936Z,19.15
2023-02-12T02:20:54.658Z,19.53
2023-02-12T02:23:59.352Z,20.33
2023-02-12T02:26:41.178Z,18.75
2023-02-12T02:29:17.968Z,19.08
2023-02-12T02:32:03.158Z,19.00
2023-02-12T02:35:03.702Z,19.87
2023-02-12T02:37:40.941Z,18.92
2023-02-12T02:40:24.879Z,20.42
2023-02-12T02:43:06.528Z,21.10
2023-02-12T02:45:48.234Z,22.45
2023-02-12T02:48:21.960Z,21.53
2023-02-12T02:50:56.161Z,22.23
2023-02-12T02:53:31.670Z,21.98
2023-02-12T02:56:02.083Z,21.23
2023-02-12T02:58:36.424Z,22.08
2023-02-12T03:01:06.186Z,21.93
2023-02-12T03:03:38.118Z,23.10
2023-02-12T03:06:10.417Z,23.60
2023-02-12T03:08:43.897Z,24.17
2023-02-12T03:11:18.317Z,24.83
2023-02-12T03:14:03.794Z,24.70
2023-02-12T03:17:00.003Z,24.67
2023-02-12T03:19:30.810Z,24.63
2023-02-12T03:22:03.446Z,24.42
2023-02-12T03:24:36.399Z,23.50
2023-02-12T03:27:11.339Z,23.30
2023-02-12T03:29:38.179Z,22.98
2023-02-12T03:32:10.125Z,22.80
2023-02-12T03:34:50.544Z,23.23
2023-02-12T03:37:33.968Z,24.25
2023-02-12T03:40:20.738Z,23.40
2023-02-12T03:42:58.003Z,22.48
2023-02-12T03:45:47.523Z,22.20
2023-02-12T03:48:16.999Z,22.50
2023-02-12T03:50:54.025Z,23.70
2023-02-12T03:53:21.110Z,23.07
2023-02-12T03:55:52.688Z,22.88
2023-02-12T03:58:24.858Z,24.30
2023-02-12T04:00:52.118Z,23.50
2023-02-12T04:03:18.981Z,23.52
2023-02-12T04:05:45.590Z,26.13
2023-02-12T04:08:13.225Z,25.52
2023-02-12T04:11:01.502Z,24.95
2023-02-12T04:13:50.253Z,25.15
2023-02-12T04:16:29.872Z,25.00
2023-02-12T04:18:57.006Z,25.07
2023-02-12T04:22:03.350Z,26.17
2023-02-12T04:24:38.945Z,26.05
2023-02-12T04:27:17.260Z,26.20
2023-02-12T04:29:54.791Z,27.73
2023-02-12T04:32:37.900Z,28.37
2023-02-12T04:35:22.799Z,27.92
2023-02-12T04:37:52.183Z,26.88
2023-02-12T04:40:20.561Z,26.63
2023-02-12T04:42:49.488Z,27.63
2023-02-12T04:45:29.913Z,26.57
2023-02-12T04:47:56.857Z,25.67
2023-02-12T04:50:23.618Z,27.75
2023-02-12T04:52:50.039Z,26.58
2023-02-12T04:55:17.048Z,28.23
2023-02-12T04:57:43.667Z,26.87
2023-02-12T05:00:13.546Z,26.95
2023-02-12T05:02:40.287Z,27.48
2023-02-12T05:05:07.319Z,27.05
2023-02-12T05:07:33.916Z,25.65
2023-02-12T05:10:00.600Z,26.27
2023-02-12T05:12:27.165Z,27.13
2023-02-12T05:14:53.556Z,27.27
2023-02-12T05:17:22.976Z,26.48
2023-02-12T05:19:49.589Z,25.80
2023-02-12T05:22:16.041Z,28.03
2023-02-12T05:24:42.770Z,26.25
2023-02-12T05:27:09.468Z,26.80
2023-02-12T05:29:36.836Z,28.33
2023-02-12T05:32:04.167Z,27.48
2023-02-12T05:34:30.861Z,26.23
2023-02-12T05:36:57.413Z,28.80
2023-02-12T05:39:23.757Z,29.30
2023-02-12T05:41:50.330Z,29.58
2023-02-12T05:44:16.950Z,29.83
2023-02-12T05:46:43.893Z,29.67
2023-02-12T05:49:11.129Z,28.58
2023-02-12T05:51:37.994Z,27.42
2023-02-12T05:54:07.508Z,29.75
2023-02-12T05:56:42.335Z,27.38
2023-02-12T05:59:15.169Z,29.73
2023-02-12T06:01:43.646Z,29.40
2023-02-12T06:04:19.156Z,29.30
2023-02-12T06:06:46.419Z,27.38
2023-02-12T06:09:14.187Z,28.38
2023-02-12T06:11:41.603Z,28.57
2023-02-12T06:14:11.304Z,28.38
2023-02-12T06:16:38.085Z,28.05
2023-02-12T06:19:09.777Z,29.08
2023-02-12T06:21:36.121Z,27.77
2023-02-12T06:24:02.733Z,28.77
2023-02-12T06:26:29.346Z,28.88
2023-02-12T06:28:55.968Z,29.08
2023-02-12T06:31:25.186Z,27.90
2023-02-12T06:33:52.451Z,28.80
2023-02-12T06:36:20.163Z,28.70
2023-02-12T06:38:47.136Z,29.20
2023-02-12T06:41:13.861Z,28.70
2023-02-12T06:43:40.705Z,29.23
2023-02-12T06:46:08.644Z,29.98
2023-02-12T06:48:35.472Z,29.73
2023-02-12T06:51:11.872Z,29.67
2023-02-12T06:53:38.526Z,30.33
2023-02-12T06:56:07.040Z,29.15
2023-02-12T06:58:33.685Z,30.17
2023-02-12T07:01:18.152Z,30.03
2023-02-12T07:03:48.612Z,29.88
2023-02-12T07:06:15.215Z,30.17
2023-02-12T07:08:41.811Z,30.23
2023-02-12T07:11:08.466Z,30.77
2023-02-12T07:13:35.432Z,27.93
2023-02-12T07:16:09.803Z,28.48
2023-02-12T07:18:37.356Z,28.58
2023-02-12T07:21:05.491Z,28.38
2023-02-12T07:23:32.690Z,30.45
2023-02-12T07:26:01.863Z,32.47
2023-02-12T07:28:28.322Z,31.08
2023-02-12T07:30:54.835Z,30.10
2023-02-12T07:33:21.377Z,29.83
2023-02-12T07:35:47.926Z,32.35
2023-02-12T07:38:14.521Z,29.87
2023-02-12T07:40:41.158Z,32.70
2023-02-12T07:43:07.779Z,32.22
2023-02-12T07:45:34.158Z,33.30
2023-02-12T07:48:00.732Z,31.63
2023-02-12T07:50:27.352Z,31.33
2023-02-12T07:52:53.927Z,31.40
2023-02-12T07:55:20.540Z,33.10
2023-02-12T07:57:46.901Z,30.80
2023-02-12T08:00:13.926Z,30.75
2023-02-12T08:02:40.929Z,31.53
2023-02-12T08:05:07.936Z,32.47
2023-02-12T08:07:34.593Z,30.98
2023-02-12T08:10:00.896Z,30.83
2023-02-12T08:12:27.225Z,32.97
2023-02-12T08:14:54.565Z,31.57
2023-02-12T08:17:21.172Z,29.98
2023-02-12T08:19:47.724Z,31.45
2023-02-12T08:22:14.417Z,31.75
2023-02-12T08:24:41.001Z,31.38
2023-02-12T08:27:07.459Z,31.77
2023-02-12T08:29:34.034Z,32.38
2023-02-12T08:32:03.110Z,31.30
2023-02-12T08:34:33.222Z,29.52
2023-02-12T08:37:00.858Z,29.45
2023-02-12T08:39:30.195Z,31.23
2023-02-12T08:41:58.145Z,31.00
2023-02-12T08:44:26.498Z,32.45
2023-02-12T08:46:53.819Z,35.42
2023-02-12T08:49:23.134Z,34.05
2023-02-12T08:51:52.108Z,34.83
2023-02-12T08:54:24.000Z,37.58
2023-02-12T08:56:50.947Z,29.15
2023-02-12T08:59:17.922Z,31.77
2023-02-12T09:01:45.131Z,34.20
2023-02-12T09:04:17.704Z,33.63
2023-02-12T09:06:45.477Z,34.42
2023-02-12T09:09:13.474Z,34.75
2023-02-12T09:11:40.499Z,30.00
2023-02-12T09:14:11.140Z,31.42
2023-02-12T09:16:40.480Z,31.10
2023-02-12T09:19:07.572Z,33.63
2023-02-12T09:21:34.116Z,32.40
2023-02-12T09:24:02.142Z,34.08
2023-02-12T09:26:28.767Z,30.13
2023-02-12T09:28:55.289Z,31.30
2023-02-12T09:31:27.132Z,32.38
2023-02-12T09:33:56.248Z,33.58
2023-02-12T09:36:22.602Z,36.88
2023-02-12T09:38:49.984Z,31.70
2023-02-12T09:41:34.629Z,30.00
2023-02-12T09:44:16.763Z,30.30
2023-02-12T09:46:48.425Z,30.55
2023-02-12T09:49:24.224Z,30.73
2023-02-12T09:51:54.934Z,32.47
2023-02-12T09:54:26.228Z,29.13
2023-02-12T09:57:00.505Z,36.20
2023-02-12T09:59:27.043Z,29.63
2023-02-12T10:01:53.705Z,26.55
2023-02-12T10:04:20.624Z,20.58
2023-02-12T10:06:56.789Z,21.13
2023-02-12T10:09:35.077Z,21.77
2023-02-12T10:12:12.404Z,21.75
2023-02-12T10:14:45.836Z,22.88
2023-02-12T10:17:45.233Z,24.17
2023-02-12T10:20:59.959Z,23.20
2023-02-12T10:23:48.634Z,26.48
2023-02-12T10:26:29.841Z,30.17
2023-02-12T10:29:05.633Z,21.73
2023-02-12T10:31:37.314Z,17.48
2023-02-12T10:34:22.850Z,14.87
2023-02-12T10:36:54.283Z,19.65
2023-02-12T10:39:24.390Z,15.50
2023-02-12T10:42:11.708Z,14.93
2023-02-12T10:44:38.317Z,16.13
2023-02-12T10:47:05.027Z,17.37
2023-02-12T10:49:33.106Z,17.63
2023-02-12T10:52:05.605Z,15.00
2023-02-12T10:54:42.159Z,16.05
2023-02-12T10:57:17.216Z,15.23
2023-02-12T10:59:45.740Z,14.13
2023-02-12T11:02:38.550Z,14.63
2023-02-12T11:05:25.350Z,14.10
2023-02-12T11:07:52.290Z,13.90
2023-02-12T11:10:31.962Z,14.75
2023-02-12T11:13:02.203Z,40.60
2023-02-12T11:15:51.737Z,16.85
2023-02-12T11:18:27.836Z,24.67
2023-02-12T11:21:01.720Z,17.20
2023-02-12T11:23:34.389Z,15.50
2023-02-12T11:26:19.169Z,14.57
2023-02-12T11:28:57.566Z,14.98
2023-02-12T11:31:29.200Z,7.97
2023-02-12T11:34:14.107Z,5.40
2023-02-12T11:36:45.807Z,6.05
2023-02-12T11:39:21.471Z,6.37
2023-02-12T11:41:53.280Z,7.38
2023-02-12T11:44:24.604Z,7.50
2023-02-12T11:46:58.714Z,9.65
2023-02-12T11:49:39.440Z,12.43
2023-02-12T11:52:06.932Z,11.80
2023-02-12T11:54:42.881Z,10.75
2023-02-12T11:57:43.754Z,10.70
2023-02-12T12:00:37.394Z,11.35
2023-02-12T12:03:15.259Z,11.00
2023-02-12T12:05:48.569Z,10.77
2023-02-12T12:08:29.730Z,10.32
2023-02-12T12:11:15.385Z,11.73
2023-02-12T12:13:51.096Z,11.65
2023-02-12T12:16:58.167Z,10.88
2023-02-12T12:19:54.197Z,11.90
2023-02-12T12:22:45.802Z,12.48
2023-02-12T12:25:27.318Z,11.38
2023-02-12T12:28:08.316Z,10.95
2023-02-12T12:30:43.632Z,11.35
2023-02-12T12:33:35.299Z,11.63
2023-02-12T12:36:18.657Z,15.20
2023-02-12T12:39:10.390Z,12.00
2023-02-12T12:41:59.048Z,11.00
2023-02-12T12:44:52.677Z,12.18
2023-02-12T12:48:04.124Z,11.77
2023-02-12T12:50:58.696Z,12.48
2023-02-12T12:53:46.883Z,13.38
2023-02-12T12:56:36.130Z,12.48
2023-02-12T12:59:30.542Z,13.35
2023-02-12T13:02:35.069Z,13.17
2023-02-12T13:05:19.328Z,14.63
2023-02-12T13:08:08.746Z,12.27
2023-02-12T13:10:47.428Z,13.50
2023-02-12T13:13:26.522Z,13.35
2023-02-12T13:16:11.343Z,14.47
2023-02-12T13:18:52.746Z,16.33
2023-02-12T13:21:28.660Z,16.33
2023-02-12T13:24:13.855Z,16.27
2023-02-12T13:26:55.128Z,14.90
2023-02-12T13:29:21.766Z,15.60
2023-02-12T13:32:14.777Z,16.38
2023-02-12T13:34:44.126Z,16.27
2023-02-12T13:37:17.709Z,16.95
2023-02-12T13:39:47.933Z,16.48
2023-02-12T13:42:26.620Z,15.83
2023-02-12T13:45:16.612Z,16.67
2023-02-12T13:48:03.952Z,16.27
2023-02-12T13:50:41.924Z,15.90
2023-02-12T13:53:27.249Z,16.00
2023-02-12T13:56:10.100Z,15.60
2023-02-12T13:58:41.938Z,16.50
2023-02-12T14:01:30.820Z,16.13
2023-02-12T14:04:14.849Z,16.60
2023-02-12T14:06:59.761Z,17.88
2023-02-12T14:09:50.235Z,17.43
2023-02-12T14:12:30.824Z,17.50
2023-02-12T14:15:31.371Z,17.92
2023-02-12T14:18:29.607Z,16.83
2023-02-12T14:21:17.242Z,18.45
2023-02-12T14:23:46.184Z,18.60
2023-02-12T14:26:15.087Z,17.77
2023-02-12T14:28:49.118Z,29.98
2023-02-12T14:31:18.781Z,23.85
2023-02-12T14:33:53.542Z,17.90
2023-02-12T14:36:42.838Z,18.07
2023-02-12T14:39:22.458Z,18.35
2023-02-12T14:41:57.393Z,17.63
2023-02-12T14:44:23.962Z,17.10
2023-02-12T14:46:52.458Z,18.30
2023-02-12T14:49:26.970Z,18.57
2023-02-12T14:52:02.459Z,17.05
2023-02-12T14:54:37.203Z,18.25
2023-02-12T14:57:09.613Z,19.15
2023-02-12T14:59:40.851Z,19.38
2023-02-12T15:02:14.280Z,17.10
2023-02-12T15:04:45.499Z,16.80
2023-02-12T15:07:17.554Z,17.25
2023-02-12T15:09:52.503Z,15.68
2023-02-12T15:12:26.619Z,15.80
2023-02-12T15:15:05.799Z,14.13
2023-02-12T15:17:39.560Z,14.40
2023-02-12T15:20:32.356Z,15.48
2023-02-12T15:22:58.877Z,15.10
2023-02-12T15:25:28.534Z,14.02
2023-02-12T15:27:59.647Z,14.07
2023-02-12T15:30:29.490Z,14.50
2023-02-12T15:32:58.412Z,13.73
2023-02-12T15:35:44.069Z,14.45
2023-02-12T15:38:20.742Z,16.02
2023-02-12T15:40:55.621Z,15.10
2023-02-12T15:43:22.195Z,15.18
2023-02-12T15:45:52.656Z,14.68
2023-02-12T15:48:21.728Z,14.38
2023-02-12T15:50:58.284Z,14.82
2023-02-12T15:53:28.228Z,13.53
2023-02-12T15:55:55.374Z,14.00
2023-02-12T15:58:48.428Z,14.48
2023-02-12T16:01:20.988Z,13.90
2023-02-12T16:03:59.363Z,14.60
2023-02-12T16:06:28.039Z,14.37
2023-02-12T16:09:16.703Z,14.40
2023-02-12T16:11:45.448Z,13.30
2023-02-12T16:14:26.249Z,14.38
2023-02-12T16:16:55.116Z,15.27
2023-02-12T16:19:29.963Z,14.97
2023-02-12T16:22:08.352Z,15.20
2023-02-12T16:24:40.506Z,15.43
2023-02-12T16:27:24.671Z,15.70
2023-02-12T16:30:04.272Z,16.08
2023-02-12T16:32:41.716Z,15.87
2023-02-12T16:35:11.214Z,15.55
2023-02-12T16:37:37.526Z,16.40
2023-02-12T16:40:13.194Z,15.18
2023-02-12T16:42:56.466Z,16.27
2023-02-12T16:45:29.921Z,16.17
2023-02-12T16:48:23.511Z,16.30
2023-02-12T16:50:57.984Z,17.13
2023-02-12T16:53:24.269Z,17.55
2023-02-12T16:55:51.224Z,15.73
2023-02-12T16:58:17.927Z,14.80
2023-02-12T17:00:44.913Z,16.63
2023-02-12T17:03:13.753Z,16.92
2023-02-12T17:05:42.818Z,16.65
2023-02-12T17:08:23.335Z,16.92
2023-02-12T17:10:50.119Z,15.37
2023-02-12T17:13:17.862Z,15.73
2023-02-12T17:16:01.919Z,16.92
2023-02-12T17:18:28.722Z,16.42
2023-02-12T17:20:59.445Z,16.70
2023-02-12T17:23:26.758Z,17.40
2023-02-12T17:25:53.209Z,18.63
2023-02-12T17:28:19.971Z,17.75
2023-02-12T17:30:46.686Z,17.13
2023-02-12T17:33:13.271Z,18.08
2023-02-12T17:35:40.508Z,17.83
2023-02-12T17:38:07.651Z,17.50
2023-02-12T17:40:38.683Z,18.05
2023-02-12T17:43:06.096Z,17.60
2023-02-12T17:45:32.967Z,18.70
2023-02-12T17:47:59.519Z,17.67
2023-02-12T17:50:26.241Z,17.00
2023-02-12T17:52:52.830Z,18.13
2023-02-12T17:55:19.491Z,18.25
2023-02-12T17:57:46.128Z,18.85
2023-02-12T18:00:13.461Z,18.87
2023-02-12T18:02:40.112Z,17.48
2023-02-12T18:05:07.169Z,19.65
2023-02-12T18:07:34.972Z,18.15
2023-02-12T18:10:01.817Z,20.90
2023-02-12T18:12:30.940Z,20.73
2023-02-12T18:14:58.913Z,23.52
2023-02-12T18:17:26.033Z,23.75
2023-02-12T18:19:53.084Z,20.77
2023-02-12T18:22:20.287Z,21.85
2023-02-12T18:24:47.182Z,23.00
2023-02-12T18:27:14.641Z,20.95
2023-02-12T18:29:41.585Z,23.50
2023-02-12T18:32:08.388Z,20.75
2023-02-12T18:34:34.966Z,20.73
2023-02-12T18:37:01.502Z,20.17
2023-02-12T18:39:29.037Z,20.70
2023-02-12T18:41:55.441Z,19.40
2023-02-12T18:44:22.973Z,19.25
2023-02-12T18:46:49.558Z,20.77
2023-02-12T18:49:16.541Z,20.37
2023-02-12T18:51:42.950Z,19.98
2023-02-12T18:54:13.333Z,20.27
2023-02-12T18:56:43.848Z,20.90
2023-02-12T18:59:12.980Z,21.30
2023-02-12T19:01:39.949Z,20.83
2023-02-12T19:04:09.393Z,19.25
2023-02-12T19:06:43.918Z,20.00
2023-02-12T19:09:11.856Z,18.95
2023-02-12T19:11:38.489Z,18.50
2023-02-12T19:14:05.152Z,19.17
2023-02-12T19:16:33.407Z,17.80
2023-02-12T19:19:01.437Z,19.27
2023-02-12T19:21:28.349Z,19.65
2023-02-12T19:24:00.622Z,20.33
2023-02-12T19:26:29.112Z,20.27
2023-02-12T19:28:57.036Z,21.45
2023-02-12T19:31:29.446Z,21.25
2023-02-12T19:34:02.492Z,20.63
2023-02-12T19:36:32.906Z,22.30
2023-02-12T19:38:59.791Z,22.00
2023-02-12T19:41:28.199Z,22.65
2023-02-12T19:44:00.682Z,22.17
2023-02-12T19:46:30.208Z,21.10
2023-02-12T19:49:02.097Z,22.67
2023-02-12T19:51:30.222Z,21.97
2023-02-12T19:54:02.196Z,21.05
2023-02-12T19:56:29.061Z,23.05
2023-02-12T19:58:57.696Z,21.25
2023-02-12T20:01:25.191Z,22.02
2023-02-12T20:03:51.638Z,21.93
2023-02-12T20:06:23.872Z,22.63
2023-02-12T20:08:53.646Z,22.65
2023-02-12T20:11:23.177Z,20.88
2023-02-12T20:13:50.206Z,20.50
2023-02-12T20:16:20.162Z,21.63
2023-02-12T20:18:52.462Z,22.40
2023-02-12T20:21:25.072Z,19.70
2023-02-12T20:23:52.004Z,20.20
2023-02-12T20:26:19.968Z,20.23
2023-02-12T20:28:47.220Z,19.05
2023-02-12T20:31:22.870Z,20.25
2023-02-12T20:33:54.636Z,20.63
2023-02-12T20:36:21.371Z,19.73
2023-02-12T20:38:52.432Z,19.63
2023-02-12T20:41:19.009Z,18.40
2023-02-12T20:43:45.702Z,20.02
2023-02-12T20:46:15.274Z,19.35
2023-02-12T20:48:42.087Z,19.20
2023-02-12T20:51:14.487Z,19.60
2023-02-12T20:53:42.411Z,18.83
2023-02-12T20:56:12.202Z,19.30
2023-02-12T20:58:40.309Z,19.85
2023-02-12T21:01:13.125Z,19.55
2023-02-12T21:03:40.324Z,22.27
2023-02-12T21:06:07.274Z,21.40
2023-02-12T21:08:36.896Z,20.58
2023-02-12T21:11:15.565Z,20.27
2023-02-12T21:13:53.920Z,21.20
2023-02-12T21:16:34.711Z,19.65
2023-02-12T21:19:01.264Z,19.47
2023-02-12T21:21:30.436Z,20.60
2023-02-12T21:23:59.317Z,20.17
2023-02-12T21:26:28.124Z,21.00
2023-02-12T21:28:57.181Z,20.45
2023-02-12T21:31:30.423Z,21.90
2023-02-12T21:33:59.023Z,22.27
2023-02-12T21:36:28.500Z,21.77
2023-02-12T21:38:55.685Z,22.35
2023-02-12T21:41:24.633Z,21.73
2023-02-12T21:43:57.860Z,22.05
2023-02-12T21:46:25.350Z,21.42
2023-02-12T21:48:52.264Z,21.42
2023-02-12T21:51:25.775Z,20.42
2023-02-12T21:53:54.430Z,20.13
2023-02-12T21:56:21.637Z,19.67
2023-02-12T21:58:49.130Z,20.02
2023-02-12T22:01:18.684Z,19.67
2023-02-12T22:03:45.249Z,19.67
2023-02-12T22:06:13.707Z,20.50
2023-02-12T22:08:40.492Z,19.17
2023-02-12T22:11:10.017Z,19.27
2023-02-12T22:13:37.617Z,20.05
2023-02-12T22:16:13.533Z,19.45
2023-02-12T22:18:41.210Z,18.38
2023-02-12T22:21:11.958Z,19.85
2023-02-12T22:23:40.503Z,20.90
2023-02-12T22:26:08.111Z,20.17
2023-02-12T22:28:39.080Z,22.23
2023-02-12T22:31:08.410Z,19.80
2023-02-12T22:33:35.170Z,20.80
2023-02-12T22:36:05.268Z,21.45
2023-02-12T22:38:39.203Z,20.40
2023-02-12T22:41:07.634Z,19.52
2023-02-12T22:43:35.955Z,21.38
2023-02-12T22:46:02.574Z,20.80
2023-02-12T22:48:29.584Z,20.23
2023-02-12T22:50:58.445Z,22.02
2023-02-12T22:53:26.004Z,25.05
2023-02-12T22:55:53.089Z,25.13
2023-02-12T22:58:19.772Z,22.90
2023-02-12T23:00:48.012Z,24.45
2023-02-12T23:03:14.659Z,28.02
2023-02-12T23:05:41.289Z,27.67
2023-02-12T23:08:07.856Z,25.70
2023-02-12T23:10:34.468Z,26.83
2023-02-12T23:13:03.055Z,25.17
2023-02-12T23:15:30.906Z,26.30
2023-02-12T23:17:57.626Z,27.92
2023-02-12T23:20:24.449Z,27.42
2023-02-12T23:22:51.076Z,29.97
2023-02-12T23:25:17.421Z,28.08
2023-02-12T23:27:43.953Z,38.50
2023-02-12T23:30:11.061Z,34.20
2023-02-12T23:32:37.642Z,30.23
2023-02-12T23:35:04.563Z,33.20
2023-02-12T23:37:30.846Z,27.40
2023-02-12T23:39:57.407Z,32.55
2023-02-12T23:42:24.021Z,26.77
2023-02-12T23:44:50.493Z,32.90
2023-02-12T23:47:17.077Z,27.77
2023-02-12T23:49:43.648Z,37.63
2023-02-12T23:52:10.234Z,36.47
2023-02-12T23:54:36.882Z,31.85
2023-02-12T23:57:03.494Z,39.78
2023-02-12T23:59:30.128Z,29.67
